Time;durP1;ratioP1;P1;durP2;ratioP2;P2;SDS_P1;SDS_P2;PMS_P1;PMS_P2;Temp;Humidity;BMP_temperature;BMP_pressure;BME280_temperature;BME280_humidity;BME280_pressure;Samples;Min_cycle;Max_cycle;Signal;HPM_P1;HPM_P2
2022/03/27 00:01:05;;;;;;;;;;;;;;;13.78;53.94;99065.50;5066184;28;19936;-78
2022/03/27 00:03:31;;;;;;;;;;;;;;;13.73;54.41;99062.78;5064426;28;19925;-79
2022/03/27 00:05:58;;;;;;;;;;;;;;;13.67;54.84;99065.66;5065793;28;19932;-80
2022/03/27 00:08:26;;;;;;;;;;;;;;;13.68;54.69;99069.97;5061748;28;20026;-79
2022/03/27 00:13:36;;;;;;;;;;;;;;;13.39;56.11;99072.91;5063627;28;19929;-78
2022/03/27 00:16:02;;;;;;;;;;;;;;;13.33;56.57;99071.25;5065440;28;20395;-78
2022/03/27 00:18:29;;;;;;;;;;;;;;;13.11;57.82;99075.00;5063748;28;19931;-79
2022/03/27 00:20:55;;;;;;;;;;;;;;;13.14;58.13;99074.50;5061883;28;19931;-79
2022/03/27 00:23:21;;;;;;;;;;;;;;;13.25;57.98;99071.66;5063587;28;19928;-79
2022/03/27 00:25:50;;;;;;;;;;;;;;;13.31;57.70;99070.66;5063464;28;19924;-79
2022/03/27 00:28:17;;;;;;;;;;;;;;;13.39;57.38;99067.53;5064375;28;19925;-78
2022/03/27 00:30:43;;;;;;;;;;;;;;;13.37;57.87;99074.19;5060286;28;19929;-79
2022/03/27 00:33:09;;;;;;;;;;;;;;;13.39;57.64;99069.41;5063838;28;19924;-79
2022/03/27 00:35:36;;;;;;;;;;;;;;;13.40;57.74;99065.69;5063462;28;20016;-79
2022/03/27 00:38:02;;;;;;;;;;;;;;;13.47;57.92;99068.94;5059445;28;19924;-79
2022/03/27 00:40:29;;;;;;;;;;;;;;;13.49;57.76;99078.34;5060257;28;19928;-79
2022/03/27 00:42:56;;;;;;;;;;;;;;;13.44;58.21;99072.13;5064041;28;20010;-80
2022/03/27 00:45:23;;;;;;;;;;;;;;;13.43;58.11;99065.16;5045253;28;19929;-79
2022/03/27 00:47:49;;;;;;;;;;;;;;;13.34;58.80;99070.16;5062162;28;19928;-79
2022/03/27 00:50:15;;;;;;;;;;;;;;;13.30;59.14;99068.25;5052867;28;19924;-79
2022/03/27 00:52:41;;;;;;;;;;;;;;;13.26;59.45;99070.63;5061281;28;19931;-78
2022/03/27 00:55:08;;;;;;;;;;;;;;;13.16;60.61;99067.81;5064148;28;20331;-78
2022/03/27 00:57:35;;;;;;;;;;;;;;;13.27;60.03;99058.03;5063357;28;20293;-79
2022/03/27 01:00:03;;;;;;;;;;;;;;;13.25;60.49;99055.56;5065445;28;19932;-81
2022/03/27 01:02:29;;;;;;;;;;;;;;;13.23;60.38;99067.63;5062931;28;20090;-79
2022/03/27 01:04:56;;;;;;;;;;;;;;;13.27;60.48;99056.16;5065567;28;19947;-78
2022/03/27 01:07:22;;;;;;;;;;;;;;;13.07;61.58;99058.56;5065286;28;19932;-79
2022/03/27 01:09:48;;;;;;;;;;;;;;;13.01;62.24;99056.88;5063815;28;19928;-78
2022/03/27 01:12:15;;;;;;;;;;;;;;;13.03;62.15;99059.34;5050164;28;19931;-79
2022/03/27 01:14:44;;;;;;;;;;;;;;;12.85;62.74;99053.22;5063542;28;19924;-78
2022/03/27 01:17:14;;;;;;;;;;;;;;;12.83;63.54;99055.34;5043939;28;19936;-79
2022/03/27 01:19:41;;;;;;;;;;;;;;;12.67;64.74;99052.69;5063606;28;20383;-78
2022/03/27 01:22:08;;;;;;;;;;;;;;;12.78;64.12;99049.09;5065321;28;19932;-78
2022/03/27 01:24:35;;;;;;;;;;;;;;;12.88;63.87;99050.03;5065861;28;19924;-78
2022/03/27 01:27:01;;;;;;;;;;;;;;;12.91;63.68;99054.06;5065512;28;19932;-79
2022/03/27 01:29:27;;;;;;;;;;;;;;;12.94;63.45;99045.53;5063910;28;19935;-77
2022/03/27 01:31:54;;;;;;;;;;;;;;;13.01;62.70;99051.53;5063415;28;19931;-78
2022/03/27 01:34:20;;;;;;;;;;;;;;;13.05;62.57;99047.28;5053217;28;19958;-78
2022/03/27 01:36:46;;;;;;;;;;;;;;;12.97;62.93;99047.72;5065925;28;19935;-79
2022/03/27 01:39:15;;;;;;;;;;;;;;;12.93;63.11;99041.25;5065008;28;20478;-80
2022/03/27 01:41:42;;;;;;;;;;;;;;;12.90;63.36;99041.75;5064224;28;20046;-80
2022/03/27 01:44:09;;;;;;;;;;;;;;;12.88;63.28;99039.31;5067709;28;19924;-78
2022/03/27 01:46:37;;;;;;;;;;;;;;;12.86;63.17;99038.75;5062542;28;20041;-79
2022/03/27 01:49:05;;;;;;;;;;;;;;;12.92;62.97;99040.44;5070416;28;19989;-79
2022/03/27 01:51:31;;;;;;;;;;;;;;;12.87;62.81;99040.34;5053894;28;19925;-79
2022/03/27 01:53:58;;;;;;;;;;;;;;;12.92;62.51;99042.31;5039032;28;19970;-79
2022/03/27 01:56:27;;;;;;;;;;;;;;;12.88;62.63;99046.53;5063847;28;20427;-79
2022/03/27 01:58:53;;;;;;;;;;;;;;;12.86;62.74;99052.16;5057500;28;19928;-79
2022/03/27 02:01:20;;;;;;;;;;;;;;;12.81;62.84;99048.59;5054519;28;20431;-78
2022/03/27 02:03:46;;;;;;;;;;;;;;;12.81;62.71;99046.72;5068286;28;19935;-77
2022/03/27 02:06:13;;;;;;;;;;;;;;;12.81;62.52;99046.72;5064478;28;19925;-78
2022/03/27 02:08:40;;;;;;;;;;;;;;;12.73;62.95;99049.84;5041418;28;19925;-77
2022/03/27 02:11:06;;;;;;;;;;;;;;;12.70;63.08;99053.03;5058060;28;19928;-77
2022/03/27 02:13:34;;;;;;;;;;;;;;;12.71;63.04;99053.84;5058674;28;20624;-78
2022/03/27 02:16:02;;;;;;;;;;;;;;;12.65;63.03;99046.78;5055634;28;19932;-78
2022/03/27 02:18:29;;;;;;;;;;;;;;;12.58;63.64;99046.16;5061288;28;19954;-79
2022/03/27 02:20:56;;;;;;;;;;;;;;;12.33;65.16;99051.97;5059930;28;19925;-78
2022/03/27 02:23:22;;;;;;;;;;;;;;;11.80;68.35;99047.97;5059975;28;19939;-78
2022/03/27 02:25:49;;;;;;;;;;;;;;;11.72;71.34;99051.03;5057920;28;20011;-78
2022/03/27 02:28:15;;;;;;;;;;;;;;;11.56;72.28;99045.63;5056434;28;20388;-79
2022/03/27 02:30:43;;;;;;;;;;;;;;;11.84;71.46;99054.47;5058267;28;20356;-77
2022/03/27 02:33:10;;;;;;;;;;;;;;;12.13;69.27;99043.66;5042053;28;19931;-78
2022/03/27 02:35:37;;;;;;;;;;;;;;;12.22;68.26;99052.91;5041641;28;19928;-79
2022/03/27 02:38:04;;;;;;;;;;;;;;;12.33;67.40;99051.97;5059826;28;19976;-78
2022/03/27 02:40:31;;;;;;;;;;;;;;;12.47;66.45;99047.09;5060454;28;19925;-78
2022/03/27 02:42:59;;;;;;;;;;;;;;;12.51;65.81;99043.66;5066225;28;20550;-78
2022/03/27 02:45:26;;;;;;;;;;;;;;;12.44;65.89;99048.38;5058186;28;19987;-77
2022/03/27 02:47:53;;;;;;;;;;;;;;;12.51;65.89;99048.19;5056814;28;19983;-78
2022/03/27 02:50:20;;;;;;;;;;;;;;;12.53;65.87;99046.91;5056081;28;19979;-79
2022/03/27 02:52:46;;;;;;;;;;;;;;;12.62;65.81;99055.31;5057815;28;19929;-78
2022/03/27 02:55:13;;;;;;;;;;;;;;;12.37;66.62;99045.06;5058972;28;19942;-78
2022/03/27 02:57:39;;;;;;;;;;;;;;;12.33;67.07;99046.63;5058250;28;19929;-78
2022/03/27 03:00:06;;;;;;;;;;;;;;;12.26;67.24;99040.63;5056607;28;19952;-78
2022/03/27 03:02:33;;;;;;;;;;;;;;;12.08;68.38;99052.41;5065956;28;19970;-79
2022/03/27 03:05:01;;;;;;;;;;;;;;;11.73;71.23;99047.28;5066051;28;19925;-78
2022/03/27 03:07:27;;;;;;;;;;;;;;;11.69;73.11;99043.47;5059398;28;20541;-78
2022/03/27 03:09:54;;;;;;;;;;;;;;;11.58;73.10;99041.66;5063310;28;19924;-77
2022/03/27 03:12:21;;;;;;;;;;;;;;;11.90;71.45;99037.41;5053991;28;19991;-78
2022/03/27 03:14:47;;;;;;;;;;;;;;;12.09;69.88;99045.19;5057565;28;20556;-78
2022/03/27 03:17:14;;;;;;;;;;;;;;;12.21;68.55;99043.22;5058893;28;20677;-77
2022/03/27 03:19:40;;;;;;;;;;;;;;;12.29;67.91;99040.13;5039844;28;19932;-79
2022/03/27 03:22:09;;;;;;;;;;;;;;;12.30;67.10;99034.53;5055687;28;19948;-79
2022/03/27 03:24:35;;;;;;;;;;;;;;;12.30;67.02;99041.75;5056212;28;19970;-80
2022/03/27 03:27:02;;;;;;;;;;;;;;;12.21;67.02;99032.50;5058748;28;19925;-78
2022/03/27 03:29:28;;;;;;;;;;;;;;;12.21;67.26;99032.50;5059053;28;19968;-78
2022/03/27 03:31:55;;;;;;;;;;;;;;;12.17;67.78;99039.41;5055781;28;19972;-78
2022/03/27 03:34:21;;;;;;;;;;;;;;;12.00;68.67;99044.00;5055671;28;19929;-78
2022/03/27 03:36:48;;;;;;;;;;;;;;;11.85;70.27;99033.84;5063987;28;20493;-79
2022/03/27 03:39:15;;;;;;;;;;;;;;;11.48;73.08;99043.38;5054892;28;19953;-78
2022/03/27 03:41:42;;;;;;;;;;;;;;;11.61;73.11;99040.34;5056876;28;19925;-78
2022/03/27 03:44:08;;;;;;;;;;;;;;;11.72;72.12;99045.69;5058435;28;19931;-79
2022/03/27 03:46:35;;;;;;;;;;;;;;;11.84;71.18;99040.25;5058360;28;20574;-78
2022/03/27 03:49:01;;;;;;;;;;;;;;;11.89;71.06;99043.00;5058630;28;19928;-79
2022/03/27 03:51:27;;;;;;;;;;;;;;;11.96;70.42;99045.53;5058514;28;19928;-78
2022/03/27 03:53:54;;;;;;;;;;;;;;;12.03;69.77;99046.19;5055790;28;20491;-78
2022/03/27 03:56:21;;;;;;;;;;;;;;;11.98;69.70;99046.06;5054414;28;19929;-78
2022/03/27 03:58:47;;;;;;;;;;;;;;;11.97;70.14;99045.28;5056943;28;20036;-79
2022/03/27 04:01:14;;;;;;;;;;;;;;;12.03;69.58;99047.00;5054987;28;19935;-77
2022/03/27 04:03:40;;;;;;;;;;;;;;;11.88;70.02;99050.22;5055786;28;19935;-79
2022/03/27 04:06:07;;;;;;;;;;;;;;;11.84;70.71;99054.47;5064490;28;19964;-78
2022/03/27 04:08:34;;;;;;;;;;;;;;;11.91;70.61;99055.09;5057414;28;20373;-78
2022/03/27 04:11:00;;;;;;;;;;;;;;;11.90;70.40;99053.47;5059173;28;20015;-77
2022/03/27 04:13:28;;;;;;;;;;;;;;;11.93;70.35;99054.03;5055521;28;19947;-78
2022/03/27 04:15:54;;;;;;;;;;;;;;;11.87;70.93;99055.84;5053771;28;20403;-79
2022/03/27 04:18:20;;;;;;;;;;;;;;;11.86;71.15;99051.53;5061198;28;19940;-78
2022/03/27 04:20:47;;;;;;;;;;;;;;;11.84;71.29;99064.34;5049991;28;19924;-78
2022/03/27 04:23:14;;;;;;;;;;;;;;;11.89;70.76;99059.88;5056689;28;20528;-80
2022/03/27 04:25:40;;;;;;;;;;;;;;;11.86;70.73;99060.38;5056701;28;20423;-79
2022/03/27 04:28:07;;;;;;;;;;;;;;;11.90;70.65;99069.53;5055101;28;19924;-79
2022/03/27 04:30:35;;;;;;;;;;;;;;;11.93;70.35;99067.44;5054795;28;19929;-79
2022/03/27 04:33:01;;;;;;;;;;;;;;;11.90;70.42;99061.50;5057663;28;19924;-78
2022/03/27 04:35:28;;;;;;;;;;;;;;;11.80;70.68;99064.00;5057391;28;20579;-79
2022/03/27 04:37:54;;;;;;;;;;;;;;;11.77;71.38;99072.53;5058336;28;19924;-78
2022/03/27 04:40:20;;;;;;;;;;;;;;;11.75;71.79;99077.31;5059447;28;19928;-78
2022/03/27 04:42:46;;;;;;;;;;;;;;;11.75;71.36;99066.63;5063072;28;20035;-79
2022/03/27 04:45:13;;;;;;;;;;;;;;;11.70;72.10;99074.53;5057933;28;19935;-78
2022/03/27 04:47:41;;;;;;;;;;;;;;;11.66;71.83;99076.06;5056753;28;19929;-78
2022/03/27 04:50:08;;;;;;;;;;;;;;;11.69;72.40;99072.09;5054540;28;19932;-79
2022/03/27 04:52:34;;;;;;;;;;;;;;;11.71;72.11;99080.72;5055079;28;19928;-78
2022/03/27 04:55:01;;;;;;;;;;;;;;;11.70;71.94;99085.25;5039371;28;19924;-78
2022/03/27 04:57:32;;;;;;;;;;;;;;;11.67;71.57;99087.56;5057531;28;19929;-78
2022/03/27 04:59:59;;;;;;;;;;;;;;;11.68;72.14;99076.63;5054565;28;20421;-78
2022/03/27 05:02:26;;;;;;;;;;;;;;;11.63;72.39;99084.56;5062801;28;19928;-78
2022/03/27 05:04:53;;;;;;;;;;;;;;;11.66;72.31;99083.28;5057894;28;20621;-77
2022/03/27 05:07:19;;;;;;;;;;;;;;;11.62;72.70;99082.94;5058915;28;19925;-77
2022/03/27 05:09:46;;;;;;;;;;;;;;;11.61;72.65;99080.50;5055957;28;20485;-78
2022/03/27 05:12:12;;;;;;;;;;;;;;;11.68;72.19;99078.47;5053941;28;19924;-77
2022/03/27 05:14:38;;;;;;;;;;;;;;;11.61;72.62;99085.84;5055020;28;19929;-79
2022/03/27 05:17:05;;;;;;;;;;;;;;;11.63;72.91;99089.94;5057924;28;19931;-76
2022/03/27 05:19:32;;;;;;;;;;;;;;;11.62;72.77;99092.84;5062315;28;19955;-78
2022/03/27 05:21:59;;;;;;;;;;;;;;;11.59;73.25;99082.59;5057541;28;19938;-79
2022/03/27 05:24:26;;;;;;;;;;;;;;;11.63;73.11;99094.47;5057563;28;19931;-79
2022/03/27 05:26:52;;;;;;;;;;;;;;;11.56;73.69;99093.78;5036705;28;19929;-78
2022/03/27 05:29:19;;;;;;;;;;;;;;;11.52;73.80;99085.44;5052094;28;20015;-79
2022/03/27 05:31:45;;;;;;;;;;;;;;;11.47;74.87;99085.34;5055634;28;19925;-77
2022/03/27 05:34:11;;;;;;;;;;;;;;;11.45;74.64;99090.09;5056702;28;19924;-78
2022/03/27 05:36:38;;;;;;;;;;;;;;;11.53;74.59;99091.59;5060799;28;19934;-80
2022/03/27 05:39:05;;;;;;;;;;;;;;;11.51;74.57;99083.84;5053848;28;20396;-79
2022/03/27 05:41:32;;;;;;;;;;;;;;;11.53;74.66;99089.75;5053850;28;19931;-78
2022/03/27 05:43:58;;;;;;;;;;;;;;;11.52;75.03;99085.44;5058780;28;19925;-78
2022/03/27 05:46:24;;;;;;;;;;;;;;;11.55;74.71;99086.81;5053341;28;19936;-78
2022/03/27 05:48:50;;;;;;;;;;;;;;;11.56;74.86;99093.78;5055861;28;19925;-78
2022/03/27 05:51:17;;;;;;;;;;;;;;;11.52;74.98;99098.00;5056860;28;19947;-79
2022/03/27 05:53:43;;;;;;;;;;;;;;;11.37;76.31;99095.84;5055513;28;19924;-77
2022/03/27 05:56:11;;;;;;;;;;;;;;;11.49;75.69;99101.97;5053388;28;19959;-78
2022/03/27 05:58:38;;;;;;;;;;;;;;;11.66;74.36;99099.34;5053858;28;20320;-79
2022/03/27 06:01:04;;;;;;;;;;;;;;;11.74;73.45;99091.75;5061154;28;19928;-77
2022/03/27 06:03:30;;;;;;;;;;;;;;;11.68;74.24;99103.38;5057256;28;19937;-79
2022/03/27 06:05:57;;;;;;;;;;;;;;;11.35;77.04;99104.13;5061727;28;20584;-78
2022/03/27 06:08:23;;;;;;;;;;;;;;;11.43;76.48;99105.59;5054094;28;19929;-78
2022/03/27 06:10:49;;;;;;;;;;;;;;;11.55;75.82;99109.03;5055790;28;20296;-79
2022/03/27 06:13:19;;;;;;;;;;;;;;;11.63;75.13;99111.34;5058352;28;20356;-78
2022/03/27 06:15:46;;;;;;;;;;;;;;;11.72;74.92;99115.28;5055121;28;20015;-79
2022/03/27 06:18:12;;;;;;;;;;;;;;;11.75;74.94;99113.97;5053007;28;19959;-80
2022/03/27 06:20:40;;;;;;;;;;;;;;;11.77;74.95;99118.03;5060093;28;19936;-79
2022/03/27 06:23:07;;;;;;;;;;;;;;;11.68;76.33;99123.97;5053228;28;19929;-78
2022/03/27 06:25:34;;;;;;;;;;;;;;;11.46;78.67;99131.88;5035193;28;20367;-80
2022/03/27 06:28:00;;;;;;;;;;;;;;;11.12;81.61;99119.44;5056706;28;19931;-78
2022/03/27 06:30:29;;;;;;;;;;;;;;;11.66;79.71;99126.91;5056247;28;20433;-80
2022/03/27 06:32:55;;;;;;;;;;;;;;;11.61;79.27;99126.78;5042014;28;19935;-78
2022/03/27 06:35:22;;;;;;;;;;;;;;;12.16;77.26;99134.22;5058540;28;19968;-79
2022/03/27 06:37:49;;;;;;;;;;;;;;;12.24;75.54;99133.81;5059927;28;19929;-78
2022/03/27 06:40:16;;;;;;;;;;;;;;;12.35;74.97;99140.94;5056336;28;19925;-77
2022/03/27 06:42:43;;;;;;;;;;;;;;;12.48;74.83;99134.44;5064481;28;19936;-78
2022/03/27 06:45:10;;;;;;;;;;;;;;;12.80;73.06;99133.59;5059956;28;19924;-78
2022/03/27 06:47:38;;;;;;;;;;;;;;;12.67;72.51;99125.88;5059997;28;19936;-78
2022/03/27 06:50:05;;;;;;;;;;;;;;;12.28;75.64;99134.94;5059605;28;19928;-79
2022/03/27 06:52:32;;;;;;;;;;;;;;;12.68;75.04;99137.44;5059704;28;20408;-79
2022/03/27 06:54:59;;;;;;;;;;;;;;;13.08;72.57;99135.31;5038651;28;20362;-78
2022/03/27 06:57:25;;;;;;;;;;;;;;;13.33;70.93;99130.28;5056222;28;19928;-79
2022/03/27 07:05:22;;;;;;;;;;;;;;;13.58;69.30;99119.00;5055079;28;19928;-77
2022/03/27 07:08:36;;;;;;;;;;;;;;;13.34;70.61;99121.13;5119157;27;19976;-60
2022/03/27 07:11:04;;;;;;;;;;;;;;;13.46;70.71;99115.66;5119607;28;19954;-61
2022/03/27 07:13:31;;;;;;;;;;;;;;;13.54;70.11;99123.25;5119555;28;19924;-60
2022/03/27 07:15:57;;;;;;;;;;;;;;;13.59;69.70;99119.78;5108008;28;19921;-61
2022/03/27 07:18:24;;;;;;;;;;;;;;;13.49;70.24;99121.31;5115679;28;19989;-60
2022/03/27 07:20:50;;;;;;;;;;;;;;;13.48;70.58;99119.69;5118341;28;19978;-60
2022/03/27 07:23:18;;;;;;;;;;;;;;;13.51;70.61;99123.75;5119227;28;20605;-61
2022/03/27 07:25:46;;;;;;;;;;;;;;;13.42;71.03;99119.88;5116319;28;19932;-61
2022/03/27 07:28:13;;;;;;;;;;;;;;;12.89;74.48;99131.28;5115523;28;19924;-60
2022/03/27 07:30:41;;;;;;;;;;;;;;;12.80;75.78;99130.09;5116620;28;19920;-61
2022/03/27 07:33:07;;;;;;;;;;;;;;;12.97;74.59;99131.66;5119023;28;19923;-60
2022/03/27 07:35:34;;;;;;;;;;;;;;;12.96;74.80;99130.06;5118834;28;19963;-61
2022/03/27 07:38:01;;;;;;;;;;;;;;;12.96;74.40;99135.41;5115342;28;19930;-60
2022/03/27 07:40:27;;;;;;;;;;;;;;;13.07;73.55;99135.53;5114351;28;19970;-61
2022/03/27 07:42:55;;;;;;;;;;;;;;;13.10;73.23;99129.69;5117940;28;19927;-59
2022/03/27 07:45:22;;;;;;;;;;;;;;;13.09;73.47;99136.13;5118610;28;19959;-61
2022/03/27 07:47:49;;;;;;;;;;;;;;;12.96;73.75;99132.72;5116457;28;19920;-60
2022/03/27 07:50:16;;;;;;;;;;;;;;;12.93;74.49;99138.59;5115187;28;19967;-60
2022/03/27 07:52:44;;;;;;;;;;;;;;;12.87;75.91;99138.78;5116577;28;19963;-60
2022/03/27 07:55:12;;;;;;;;;;;;;;;12.63;78.30;99131.97;5118671;28;19924;-61
2022/03/27 07:57:39;;;;;;;;;;;;;;;12.40;80.59;99138.34;5117736;28;19928;-60
2022/03/27 08:00:10;;;;;;;;;;;;;;;12.28;82.70;99146.47;5115219;28;19935;-60
2022/03/27 08:02:36;;;;;;;;;;;;;;;12.18;83.65;99132.91;5115445;28;19966;-61
2022/03/27 08:05:04;;;;;;;;;;;;;;;12.13;84.55;99130.13;5118711;28;19962;-60
2022/03/27 08:07:30;;;;;;;;;;;;;;;12.34;81.41;99125.94;5129976;28;19951;-59
2022/03/27 08:09:57;;;;;;;;;;;;;;;12.28;82.21;99130.41;5135424;28;19928;-61
2022/03/27 08:12:23;;;;;;;;;;;;;;;12.32;83.44;99130.69;5134952;28;19920;-60
2022/03/27 08:14:49;;;;;;;;;;;;;;;12.43;79.98;99133.31;5137649;27;19928;-59
2022/03/27 08:17:17;;;;;;;;;;;;;;;12.55;80.17;99132.41;5138631;27;19931;-61
2022/03/27 08:19:43;;;;;;;;;;;;;;;12.53;80.30;99129.97;5124555;28;19919;-60
2022/03/27 08:22:10;;;;;;;;;;;;;;;12.65;78.99;99127.19;5121228;28;19962;-60
2022/03/27 08:24:37;;;;;;;;;;;;;;;12.54;80.96;99128.91;5122079;28;19988;-60
2022/03/27 08:27:04;;;;;;;;;;;;;;;12.63;80.78;99118.56;5124953;28;19924;-60
2022/03/27 08:29:31;;;;;;;;;;;;;;;12.71;78.33;99121.66;5125083;28;19945;-60
2022/03/27 08:31:59;;;;;;;;;;;;;;;12.84;76.69;99133.91;5121445;28;19958;-60
2022/03/27 08:34:29;;;;;;;;;;;;;;;12.81;76.37;99126.34;5121333;28;19963;-60
2022/03/27 08:36:56;;;;;;;;;;;;;;;12.83;77.37;99127.72;5124361;28;19924;-60
2022/03/27 08:39:22;;;;;;;;;;;;;;;12.85;79.43;99119.41;5106775;28;19962;-59
2022/03/27 08:41:51;;;;;;;;;;;;;;;12.87;78.29;99118.09;5122423;28;19920;-60
2022/03/27 08:44:18;;;;;;;;;;;;;;;12.88;81.73;99125.09;5103426;28;19920;-60
2022/03/27 08:46:45;;;;;;;;;;;;;;;12.88;79.44;99130.47;5122831;28;19977;-60
2022/03/27 08:49:19;;;;;;;;;;;;;;;12.94;84.63;99124.09;5124928;28;19987;-61
2022/03/27 08:51:55;;;;;;;;;;;;;;;12.88;87.00;99119.75;5122859;28;19945;-61
2022/03/27 08:54:23;;;;;;;;;;;;;;;12.91;87.36;99107.69;5121210;28;19960;-61
2022/03/27 08:57:00;;;;;;;;;;;;;;;12.94;86.36;99112.56;5123492;28;20015;-61
2022/03/27 08:59:26;;;;;;;;;;;;;;;12.95;81.96;99109.66;5124469;28;19987;-60
2022/03/27 09:01:53;;;;;;;;;;;;;;;13.12;81.89;99108.81;5121551;28;20683;-60
2022/03/27 09:04:20;;;;;;;;;;;;;;;13.13;86.99;99111.22;5120780;28;19924;-60
2022/03/27 09:06:46;;;;;;;;;;;;;;;13.21;85.49;99107.31;5122356;28;20545;-59
2022/03/27 09:09:15;;;;;;;;;;;;;;;13.04;81.56;99110.03;5106028;28;19924;-61
2022/03/27 09:11:43;;;;;;;;;;;;;;;13.28;85.58;99105.22;5122794;28;19924;-62
2022/03/27 09:14:10;;;;;;;;;;;;;;;13.37;86.68;99111.78;5120439;28;20434;-61
2022/03/27 09:16:51;;;;;;;;;;;;;;;13.41;86.04;99113.72;5120567;22;20315;-74
2022/03/27 09:19:31;;;;;;;;;;;;;;;13.42;83.68;99109.16;5059736;28;20433;-74
2022/03/27 09:21:59;;;;;;;;;;;;;;;13.57;84.22;99109.31;5055885;28;19967;-73
2022/03/27 09:24:35;;;;;;;;;;;;;;;13.62;83.10;99109.34;5056048;28;20011;-73
2022/03/27 09:27:01;;;;;;;;;;;;;;;13.60;82.17;99106.13;5042628;28;19933;-74
2022/03/27 09:29:28;;;;;;;;;;;;;;;13.72;82.12;99104.09;5060567;28;19964;-74
2022/03/27 09:31:57;;;;;;;;;;;;;;;13.76;81.59;99094.47;5056012;28;19925;-74
2022/03/27 09:34:23;;;;;;;;;;;;;;;13.81;79.11;99094.50;5056279;28;19925;-73
2022/03/27 09:36:50;;;;;;;;;;;;;;;13.64;79.12;99085.78;5040537;28;19964;-74
2022/03/27 09:39:17;;;;;;;;;;;;;;;13.98;80.13;99089.03;5058933;28;20237;-74
2022/03/27 09:41:46;;;;;;;;;;;;;;;14.14;78.59;99093.47;5057148;28;19924;-73
2022/03/27 09:44:14;;;;;;;;;;;;;;;14.16;77.25;99083.25;5054524;28;19929;-74
2022/03/27 09:46:51;;;;;;;;;;;;;;;14.17;76.50;99081.38;5056290;28;19925;-74
2022/03/27 09:49:18;;;;;;;;;;;;;;;14.12;75.32;99081.34;5058097;28;19931;-74
2022/03/27 09:51:51;;;;;;;;;;;;;;;14.30;74.86;99080.91;5038637;28;19939;-73
2022/03/27 09:54:18;;;;;;;;;;;;;;;14.36;73.95;99083.41;5054348;28;19925;-73
2022/03/27 09:56:46;;;;;;;;;;;;;;;14.57;73.20;99073.63;5056036;28;20005;-74
2022/03/27 09:59:25;;;;;;;;;;;;;;;14.62;72.34;99073.66;5057756;28;19925;-73
2022/03/27 10:01:52;;;;;;;;;;;;;;;14.76;72.55;99077.47;5055231;28;19975;-74
2022/03/27 10:04:18;;;;;;;;;;;;;;;14.86;70.75;99069.47;5054469;28;19925;-73
2022/03/27 10:06:45;;;;;;;;;;;;;;;14.85;69.84;99075.94;5055863;28;19992;-73
2022/03/27 10:09:11;;;;;;;;;;;;;;;14.88;70.11;99070.03;5057515;28;19925;-73
2022/03/27 10:11:39;;;;;;;;;;;;;;;15.06;70.30;99066.88;5055566;28;19935;-74
2022/03/27 10:14:07;;;;;;;;;;;;;;;15.12;71.30;99059.63;5054218;28;19925;-74
2022/03/27 10:16:34;;;;;;;;;;;;;;;15.30;69.67;99061.00;5054304;28;19956;-74
2022/03/27 10:19:03;;;;;;;;;;;;;;;15.39;65.88;99062.91;5039622;28;20020;-74
2022/03/27 10:21:30;;;;;;;;;;;;;;;15.27;64.32;99056.97;5039571;28;19925;-74
2022/03/27 10:24:02;;;;;;;;;;;;;;;15.34;65.38;99051.34;5054122;28;20454;-73
2022/03/27 10:26:28;;;;;;;;;;;;;;;15.43;65.58;99049.72;5053778;28;19925;-74
2022/03/27 10:28:55;;;;;;;;;;;;;;;15.40;65.29;99053.78;5056889;28;19924;-72
2022/03/27 10:31:23;;;;;;;;;;;;;;;15.47;63.07;99046.25;5057525;28;20147;-73
2022/03/27 10:33:51;;;;;;;;;;;;;;;15.44;63.96;99040.59;5055252;28;19925;-75
2022/03/27 10:36:20;;;;;;;;;;;;;;;15.64;64.80;99046.03;5036467;28;19932;-73
2022/03/27 10:38:50;;;;;;;;;;;;;;;15.62;62.70;99034.72;5055907;28;20337;-74
2022/03/27 10:41:20;;;;;;;;;;;;;;;15.75;61.48;99039.59;5055436;28;19984;-73
2022/03/27 10:43:49;;;;;;;;;;;;;;;15.80;60.55;99033.38;5055547;28;19935;-73
2022/03/27 10:46:17;;;;;;;;;;;;;;;15.85;61.13;99030.66;5054007;28;20261;-73
2022/03/27 10:48:45;;;;;;;;;;;;;;;15.92;58.95;99026.63;5037270;28;19929;-74
2022/03/27 10:51:12;;;;;;;;;;;;;;;15.97;59.17;99026.63;5057265;28;19959;-73
2022/03/27 10:53:39;;;;;;;;;;;;;;;16.00;61.36;99026.09;5056467;28;19982;-73
2022/03/27 10:56:05;;;;;;;;;;;;;;;16.12;61.15;99009.66;5053552;28;19947;-73
2022/03/27 10:58:33;;;;;;;;;;;;;;;16.11;61.63;99018.81;5053517;28;19990;-74
2022/03/27 11:01:00;;;;;;;;;;;;;;;16.16;61.85;99019.59;5053453;28;19924;-74
2022/03/27 11:03:45;;;;;;;;;;;;;;;16.17;62.48;99023.91;5053324;28;20020;-74
2022/03/27 11:06:21;;;;;;;;;;;;;;;16.27;61.40;99006.13;5053588;28;20063;-73
2022/03/27 11:08:48;;;;;;;;;;;;;;;16.15;61.54;99009.09;5055534;28;19925;-73
2022/03/27 11:11:33;;;;;;;;;;;;;;;16.19;62.66;98992.09;5038784;28;19924;-73
2022/03/27 11:14:00;;;;;;;;;;;;;;;16.47;61.44;99001.47;5053378;28;19985;-73
2022/03/27 11:16:26;;;;;;;;;;;;;;;16.52;62.22;99001.47;5053250;28;19929;-74
2022/03/27 11:18:53;;;;;;;;;;;;;;;16.50;62.40;98995.53;5056104;28;19932;-74
2022/03/27 11:21:34;;;;;;;;;;;;;;;16.68;61.55;99002.25;5056938;28;19931;-73
2022/03/27 11:24:15;;;;;;;;;;;;;;;16.86;59.80;99006.22;5045216;28;20318;-76
2022/03/27 11:26:43;;;;;;;;;;;;;;;16.81;59.13;98985.44;5044826;28;19925;-73
2022/03/27 11:29:19;;;;;;;;;;;;;;;16.80;59.71;98983.03;5044798;28;19966;-73
2022/03/27 11:32:03;;;;;;;;;;;;;;;16.81;59.86;98982.75;5044846;28;19925;-74
2022/03/27 11:34:29;;;;;;;;;;;;;;;16.89;60.66;98981.38;5044607;28;19961;-73
2022/03/27 11:37:13;;;;;;;;;;;;;;;17.01;60.53;98982.66;5044869;28;19925;-73
2022/03/27 11:39:39;;;;;;;;;;;;;;;17.04;60.20;98979.41;5044610;28;19973;-73
2022/03/27 11:42:25;;;;;;;;;;;;;;;17.12;59.24;98976.09;5044665;28;19933;-73
2022/03/27 11:45:09;;;;;;;;;;;;;;;17.18;59.73;98975.00;5055633;28;19925;-73
2022/03/27 11:47:37;;;;;;;;;;;;;;;17.02;59.43;98973.47;5038394;28;19956;-74
2022/03/27 11:50:03;;;;;;;;;;;;;;;16.95;59.34;98969.47;5053303;28;19940;-74
2022/03/27 11:52:30;;;;;;;;;;;;;;;17.16;59.59;98971.78;5053275;28;19972;-73
2022/03/27 11:55:03;;;;;;;;;;;;;;;17.16;60.04;98960.97;5059366;28;19992;-73
2022/03/27 11:57:42;;;;;;;;;;;;;;;17.41;58.76;98962.69;5060429;28;19948;-73
2022/03/27 12:00:09;;;;;;;;;;;;;;;17.40;58.56;98971.06;5048782;28;19935;-73
2022/03/27 12:02:41;;;;;;;;;;;;;;;17.32;59.38;98952.78;5030872;28;19955;-73
2022/03/27 12:05:07;;;;;;;;;;;;;;;17.41;59.26;98956.47;5048969;28;19925;-73
2022/03/27 12:07:48;;;;;;;;;;;;;;;16.97;62.15;98956.50;5048621;28;19932;-74
2022/03/27 12:10:14;;;;;;;;;;;;;;;17.35;61.67;98944.91;5048502;28;19929;-74
2022/03/27 12:12:54;;;;;;;;;;;;;;;17.34;59.60;98948.69;5049597;28;19951;-73
2022/03/27 12:15:20;;;;;;;;;;;;;;;17.04;61.54;98941.63;5042168;28;19960;-73
2022/03/27 12:17:47;;;;;;;;;;;;;;;17.41;60.97;98940.28;5058015;28;19982;-73
2022/03/27 12:20:15;;;;;;;;;;;;;;;17.53;59.80;98940.72;5056513;28;19960;-74
2022/03/27 12:22:42;;;;;;;;;;;;;;;17.69;58.53;98936.84;5057865;28;19949;-74
2022/03/27 12:25:18;;;;;;;;;;;;;;;17.68;58.32;98940.63;5059758;28;19924;-73
2022/03/27 12:30:33;;;;;;;;;;;;;;;17.40;61.12;98927.84;5056429;28;19925;-74
2022/03/27 12:33:01;;;;;;;;;;;;;;;17.65;59.07;98919.56;5048003;28;19925;-74
2022/03/27 12:35:28;;;;;;;;;;;;;;;17.71;58.73;98921.13;5047807;28;20009;-73
2022/03/27 12:37:55;;;;;;;;;;;;;;;17.54;59.63;98918.03;5047691;28;19964;-73
2022/03/27 12:40:22;;;;;;;;;;;;;;;17.84;58.43;98919.66;5047571;28;19925;-73
2022/03/27 12:42:49;;;;;;;;;;;;;;;17.85;58.47;98913.19;5049735;28;19960;-75
2022/03/27 12:45:17;;;;;;;;;;;;;;;18.03;57.65;98910.56;5059550;28;19929;-75
2022/03/27 12:47:46;;;;;;;;;;;;;;;18.18;56.99;98907.69;5057628;28;19936;-74
2022/03/27 12:50:13;;;;;;;;;;;;;;;18.12;57.06;98906.13;5056837;28;19936;-73
2022/03/27 12:52:47;;;;;;;;;;;;;;;17.45;59.88;98908.94;5057338;28;19981;-72
2022/03/27 12:55:13;;;;;;;;;;;;;;;17.67;59.73;98906.59;5060104;28;19974;-72
2022/03/27 12:57:50;;;;;;;;;;;;;;;17.98;57.80;98905.19;5059136;28;19925;-73
2022/03/27 13:00:17;;;;;;;;;;;;;;;17.90;57.60;98896.91;5038735;28;19925;-73
2022/03/27 13:02:45;;;;;;;;;;;;;;;18.10;56.73;98894.81;5058100;28;20195;-72